createdAt,value
2023-05-19T00:00:05.724Z,95046.00
2023-05-19T00:01:05.801Z,95044.00
2023-05-19T00:02:05.979Z,95044.00
2023-05-19T00:03:05.962Z,95046.00
2023-05-19T00:04:05.912Z,95044.00
2023-05-19T00:05:05.961Z,95046.00
2023-05-19T00:06:06.073Z,95042.00
2023-05-19T00:07:06.070Z,95040.00
2023-05-19T00:08:06.140Z,95042.00
2023-05-19T00:09:06.210Z,95042.00
2023-05-19T00:10:06.248Z,95038.00
2023-05-19T00:11:06.346Z,95038.00
2023-05-19T00:12:06.363Z,95040.00
2023-05-19T00:13:06.418Z,95036.00
2023-05-19T00:14:06.467Z,95040.00
2023-05-19T00:15:06.463Z,95038.00
2023-05-19T00:16:06.529Z,95038.00
2023-05-19T00:17:06.567Z,95042.00
2023-05-19T00:18:06.638Z,95038.00
2023-05-19T00:19:06.728Z,95038.00
2023-05-19T00:20:06.717Z,95038.00
2023-05-19T00:21:06.756Z,95038.00
2023-05-19T00:22:06.777Z,95038.00
2023-05-19T00:23:06.803Z,95036.00
2023-05-19T00:24:06.846Z,95038.00
2023-05-19T00:25:07.313Z,95042.00
2023-05-19T00:26:06.900Z,95040.00
2023-05-19T00:27:06.930Z,95042.00
2023-05-19T00:28:06.949Z,95040.00
2023-05-19T00:29:06.976Z,95038.00
2023-05-19T00:30:07.076Z,95040.00
2023-05-19T00:31:07.053Z,95038.00
2023-05-19T00:32:07.180Z,95040.00
2023-05-19T00:33:07.167Z,95040.00
2023-05-19T00:34:07.162Z,95040.00
2023-05-19T00:35:07.207Z,95040.00
2023-05-19T00:36:07.244Z,95040.00
2023-05-19T00:37:07.300Z,95038.00
2023-05-19T00:38:07.342Z,95040.00
2023-05-19T00:39:07.393Z,95036.00
2023-05-19T00:40:07.420Z,95040.00
2023-05-19T00:41:07.481Z,95040.00
2023-05-19T00:42:07.501Z,95040.00
2023-05-19T00:43:07.527Z,95036.00
2023-05-19T00:44:07.614Z,95036.00
2023-05-19T00:45:07.642Z,95034.00
2023-05-19T00:46:07.797Z,95034.00
2023-05-19T00:47:07.771Z,95034.00
2023-05-19T00:48:07.806Z,95034.00
2023-05-19T00:49:07.782Z,95034.00
2023-05-19T00:50:07.816Z,95031.00
2023-05-19T00:51:07.835Z,95031.00
2023-05-19T00:52:07.873Z,95031.00
2023-05-19T00:53:07.888Z,95031.00
2023-05-19T00:54:07.949Z,95029.00
2023-05-19T00:55:07.953Z,95027.00
2023-05-19T00:56:07.984Z,95029.00
2023-05-19T00:57:08.008Z,95029.00
2023-05-19T00:58:08.057Z,95033.00
2023-05-19T00:59:08.090Z,95031.00
2023-05-19T01:00:08.137Z,95031.00
2023-05-19T01:01:08.198Z,95031.00
2023-05-19T01:02:08.178Z,95031.00
2023-05-19T01:03:08.281Z,95031.00
2023-05-19T01:04:08.324Z,95031.00
2023-05-19T01:05:08.301Z,95031.00
2023-05-19T01:06:08.440Z,95031.00
2023-05-19T01:07:08.394Z,95033.00
2023-05-19T01:08:08.411Z,95029.00
2023-05-19T01:09:08.487Z,95027.00
2023-05-19T01:10:08.524Z,95025.00
2023-05-19T01:11:08.563Z,95027.00
2023-05-19T01:12:08.652Z,95027.00
2023-05-19T01:13:08.641Z,95025.00
2023-05-19T01:14:08.664Z,95027.00
2023-05-19T01:15:08.701Z,95025.00
2023-05-19T01:16:08.905Z,95025.00
2023-05-19T01:17:08.766Z,95023.00
2023-05-19T01:18:08.846Z,95023.00
2023-05-19T01:19:08.894Z,95025.00
2023-05-19T01:20:08.900Z,95027.00
2023-05-19T01:21:08.971Z,95027.00
2023-05-19T01:22:09.834Z,95025.00
2023-05-19T01:23:09.010Z,95027.00
2023-05-19T01:24:09.076Z,95027.00
2023-05-19T01:25:09.110Z,95025.00
2023-05-19T01:26:09.165Z,95025.00
2023-05-19T01:27:09.186Z,95027.00
2023-05-19T01:28:09.215Z,95027.00
2023-05-19T01:29:09.273Z,95023.00
2023-05-19T01:30:09.273Z,95025.00
2023-05-19T01:31:09.310Z,95021.00
2023-05-19T01:32:09.378Z,95021.00
2023-05-19T01:33:09.495Z,95021.00
2023-05-19T01:34:09.490Z,95019.00
2023-05-19T01:35:09.513Z,95021.00
2023-05-19T01:36:09.547Z,95023.00
2023-05-19T01:37:09.580Z,95025.00
2023-05-19T01:38:09.623Z,95023.00
2023-05-19T01:39:09.643Z,95027.00
2023-05-19T01:40:09.687Z,95025.00
2023-05-19T01:41:09.738Z,95025.00
2023-05-19T01:42:09.752Z,95027.00
2023-05-19T01:43:09.793Z,95029.00
2023-05-19T01:44:09.805Z,95027.00
2023-05-19T01:45:09.819Z,95029.00
2023-05-19T01:46:09.861Z,95027.00
2023-05-19T01:47:09.860Z,95025.00
2023-05-19T01:48:11.189Z,95021.00
2023-05-19T01:49:09.947Z,95025.00
2023-05-19T01:50:09.974Z,95025.00
2023-05-19T01:51:09.986Z,95025.00
2023-05-19T01:52:09.997Z,95027.00
2023-05-19T01:53:10.022Z,95023.00
2023-05-19T01:54:10.860Z,95023.00
2023-05-19T01:55:10.124Z,95023.00
2023-05-19T01:56:10.182Z,95025.00
2023-05-19T01:57:10.165Z,95025.00
2023-05-19T01:58:10.198Z,95027.00
2023-05-19T01:59:10.191Z,95029.00
2023-05-19T02:00:10.219Z,95027.00
2023-05-19T02:01:10.305Z,95027.00
2023-05-19T02:02:10.269Z,95027.00
2023-05-19T02:03:10.310Z,95027.00
2023-05-19T02:04:10.379Z,95027.00
2023-05-19T02:05:10.374Z,95031.00
2023-05-19T02:06:10.886Z,95027.00
2023-05-19T02:07:10.479Z,95029.00
2023-05-19T02:08:10.540Z,95029.00
2023-05-19T02:09:10.582Z,95029.00
2023-05-19T02:10:10.673Z,95027.00
2023-05-19T02:11:10.670Z,95033.00
2023-05-19T02:12:10.721Z,95033.00
2023-05-19T02:13:10.721Z,95036.00
2023-05-19T02:14:10.750Z,95033.00
2023-05-19T02:15:10.767Z,95031.00
2023-05-19T02:16:10.838Z,95034.00
2023-05-19T02:17:10.824Z,95034.00
2023-05-19T02:18:10.826Z,95033.00
2023-05-19T02:19:10.865Z,95031.00
2023-05-19T02:20:11.015Z,95033.00
2023-05-19T02:21:10.941Z,95034.00
2023-05-19T02:22:10.977Z,95031.00
2023-05-19T02:23:11.013Z,95034.00
2023-05-19T02:24:11.043Z,95033.00
2023-05-19T02:25:11.078Z,95031.00
2023-05-19T02:26:11.159Z,95029.00
2023-05-19T02:27:11.101Z,95033.00
2023-05-19T02:28:11.138Z,95029.00
2023-05-19T02:29:11.193Z,95031.00
2023-05-19T02:30:11.190Z,95027.00
2023-05-19T02:31:11.230Z,95033.00
2023-05-19T02:32:11.431Z,95029.00
2023-05-19T02:33:11.388Z,95033.00
2023-05-19T02:34:11.393Z,95031.00
2023-05-19T02:35:11.335Z,95031.00
2023-05-19T02:36:11.386Z,95034.00
2023-05-19T02:37:11.342Z,95033.00
2023-05-19T02:38:11.376Z,95036.00
2023-05-19T02:39:11.409Z,95036.00
2023-05-19T02:40:11.454Z,95033.00
2023-05-19T02:41:11.465Z,95031.00
2023-05-19T02:42:11.482Z,95031.00
2023-05-19T02:43:11.494Z,95033.00
2023-05-19T02:44:11.516Z,95031.00
2023-05-19T02:45:11.561Z,95029.00
2023-05-19T02:46:11.748Z,95027.00
2023-05-19T02:47:11.597Z,95031.00
2023-05-19T02:48:11.660Z,95031.00
2023-05-19T02:49:11.669Z,95033.00
2023-05-19T02:50:11.668Z,95029.00
2023-05-19T02:51:11.668Z,95029.00
2023-05-19T02:52:11.735Z,95027.00
2023-05-19T02:53:11.725Z,95031.00
2023-05-19T02:54:12.390Z,95027.00
2023-05-19T02:55:11.752Z,95029.00
2023-05-19T02:56:11.749Z,95027.00
2023-05-19T02:57:11.743Z,95025.00
2023-05-19T02:58:11.781Z,95023.00
2023-05-19T02:59:11.822Z,95027.00
2023-05-19T03:00:11.816Z,95021.00
2023-05-19T03:01:11.849Z,95023.00
2023-05-19T03:02:11.978Z,95019.00
2023-05-19T03:03:11.935Z,95021.00
2023-05-19T03:04:11.893Z,95021.00
2023-05-19T03:05:11.897Z,95017.00
2023-05-19T03:06:11.925Z,95017.00
2023-05-19T03:07:11.959Z,95021.00
2023-05-19T03:08:11.969Z,95019.00
2023-05-19T03:09:11.999Z,95017.00
2023-05-19T03:10:12.025Z,95013.00
2023-05-19T03:11:12.038Z,95015.00
2023-05-19T03:12:12.044Z,95015.00
2023-05-19T03:13:12.062Z,95015.00
2023-05-19T03:14:12.081Z,95015.00
2023-05-19T03:15:12.105Z,95013.00
2023-05-19T03:16:12.141Z,95011.00
2023-05-19T03:17:12.190Z,95013.00
2023-05-19T03:18:12.198Z,95013.00
2023-05-19T03:19:12.216Z,95013.00
2023-05-19T03:20:12.224Z,95015.00
2023-05-19T03:21:12.226Z,95015.00
2023-05-19T03:22:12.230Z,95017.00
2023-05-19T03:23:12.257Z,95015.00
2023-05-19T03:24:12.295Z,95013.00
2023-05-19T03:25:12.300Z,95015.00
2023-05-19T03:26:12.302Z,95011.00
2023-05-19T03:27:12.336Z,95011.00
2023-05-19T03:28:12.350Z,95011.00
2023-05-19T03:29:12.415Z,95011.00
2023-05-19T03:30:12.444Z,95013.00
2023-05-19T03:31:12.505Z,95013.00
2023-05-19T03:32:12.517Z,95011.00
2023-05-19T03:33:12.761Z,95011.00
2023-05-19T03:34:12.673Z,95011.00
2023-05-19T03:35:12.635Z,95009.00
2023-05-19T03:36:12.704Z,95013.00
2023-05-19T03:37:12.723Z,95011.00
2023-05-19T03:38:12.738Z,95009.00
2023-05-19T03:39:12.793Z,95009.00
2023-05-19T03:40:12.860Z,95009.00
2023-05-19T03:41:12.866Z,95005.00
2023-05-19T03:42:12.939Z,95007.00
2023-05-19T03:43:12.950Z,95007.00
2023-05-19T03:44:12.941Z,95005.00
2023-05-19T03:45:12.963Z,95005.00
2023-05-19T03:46:13.036Z,95007.00
2023-05-19T03:47:12.958Z,95001.00
2023-05-19T03:48:13.051Z,95001.00
2023-05-19T03:49:13.042Z,95003.00
2023-05-19T03:50:13.059Z,95005.00
2023-05-19T03:51:13.119Z,95003.00
2023-05-19T03:52:13.148Z,95005.00
2023-05-19T03:53:13.149Z,95005.00
2023-05-19T03:54:13.168Z,95009.00
2023-05-19T03:55:13.203Z,95007.00
2023-05-19T03:56:13.230Z,95009.00
2023-05-19T03:57:13.226Z,95013.00
2023-05-19T03:58:13.265Z,95011.00
2023-05-19T03:59:13.320Z,95015.00
2023-05-19T04:00:13.358Z,95013.00
2023-05-19T04:01:13.375Z,95013.00
2023-05-19T04:02:13.432Z,95013.00
2023-05-19T04:03:13.518Z,95013.00
2023-05-19T04:04:13.454Z,95011.00
2023-05-19T04:05:13.451Z,95011.00
2023-05-19T04:06:13.457Z,95009.00
2023-05-19T04:07:13.469Z,95013.00
2023-05-19T04:08:13.504Z,95011.00
2023-05-19T04:09:13.522Z,95007.00
2023-05-19T04:10:13.553Z,95005.00
2023-05-19T04:11:13.567Z,95005.00
2023-05-19T04:12:13.570Z,95007.00
2023-05-19T04:13:13.643Z,95007.00
2023-05-19T04:14:13.684Z,95007.00
2023-05-19T04:15:13.679Z,95007.00
2023-05-19T04:16:13.762Z,95009.00
2023-05-19T04:17:13.776Z,95009.00
2023-05-19T04:18:13.901Z,95011.00
2023-05-19T04:19:13.911Z,95011.00
2023-05-19T04:20:13.922Z,95011.00
2023-05-19T04:21:13.915Z,95013.00
2023-05-19T04:22:13.948Z,95013.00
2023-05-19T04:23:13.949Z,95009.00
2023-05-19T04:24:14.000Z,95011.00
2023-05-19T04:25:14.029Z,95015.00
2023-05-19T04:26:14.036Z,95015.00
2023-05-19T04:27:14.071Z,95015.00
2023-05-19T04:28:14.136Z,95015.00
2023-05-19T04:29:14.185Z,95013.00
2023-05-19T04:30:15.221Z,95019.00
2023-05-19T04:31:14.334Z,95019.00
2023-05-19T04:32:14.352Z,95019.00
2023-05-19T04:33:14.418Z,95017.00
2023-05-19T04:34:14.461Z,95017.00
2023-05-19T04:35:14.516Z,95017.00
2023-05-19T04:36:14.555Z,95017.00
2023-05-19T04:37:14.559Z,95017.00
2023-05-19T04:38:14.580Z,95017.00
2023-05-19T04:39:14.657Z,95017.00
2023-05-19T04:40:14.677Z,95019.00
2023-05-19T04:41:14.771Z,95019.00
2023-05-19T04:42:14.792Z,95023.00
2023-05-19T04:43:14.872Z,95019.00
2023-05-19T04:44:14.876Z,95023.00
2023-05-19T04:45:14.918Z,95023.00
2023-05-19T04:46:14.979Z,95021.00
2023-05-19T04:47:14.963Z,95019.00
2023-05-19T04:48:15.015Z,95019.00
2023-05-19T04:49:15.009Z,95019.00
2023-05-19T04:50:15.009Z,95015.00
2023-05-19T04:51:15.037Z,95017.00
2023-05-19T04:52:15.034Z,95015.00
2023-05-19T04:53:15.031Z,95017.00
2023-05-19T04:54:15.076Z,95015.00
2023-05-19T04:55:15.085Z,95019.00
2023-05-19T04:56:15.086Z,95017.00
2023-05-19T04:57:15.116Z,95019.00
2023-05-19T04:58:15.105Z,95023.00
2023-05-19T04:59:15.077Z,95025.00
2023-05-19T05:00:15.133Z,95023.00
2023-05-19T05:01:15.130Z,95025.00
2023-05-19T05:02:15.162Z,95023.00
2023-05-19T05:03:15.280Z,95023.00
2023-05-19T05:04:15.266Z,95021.00
2023-05-19T05:05:15.179Z,95021.00
2023-05-19T05:06:15.189Z,95017.00
2023-05-19T05:07:15.224Z,95017.00
2023-05-19T05:08:15.221Z,95017.00
2023-05-19T05:09:15.229Z,95017.00
2023-05-19T05:10:15.272Z,95015.00
2023-05-19T05:11:15.310Z,95015.00
2023-05-19T05:12:15.339Z,95015.00
2023-05-19T05:13:15.341Z,95015.00
2023-05-19T05:14:15.366Z,95015.00
2023-05-19T05:15:15.364Z,95019.00
2023-05-19T05:16:15.453Z,95017.00
2023-05-19T05:17:15.416Z,95015.00
2023-05-19T05:18:15.464Z,95017.00
2023-05-19T05:19:15.499Z,95017.00
2023-05-19T05:20:15.500Z,95015.00
2023-05-19T05:21:15.550Z,95017.00
2023-05-19T05:22:15.590Z,95023.00
2023-05-19T05:23:15.591Z,95021.00
2023-05-19T05:24:15.620Z,95019.00
2023-05-19T05:25:15.605Z,95017.00
2023-05-19T05:26:15.633Z,95017.00
2023-05-19T05:27:15.632Z,95017.00
2023-05-19T05:28:15.637Z,95015.00
2023-05-19T05:29:15.621Z,95017.00
2023-05-19T05:30:15.627Z,95019.00
2023-05-19T05:31:15.670Z,95017.00
2023-05-19T05:32:15.652Z,95021.00
2023-05-19T05:33:15.734Z,95019.00
2023-05-19T05:34:15.678Z,95019.00
2023-05-19T05:35:15.706Z,95019.00
2023-05-19T05:36:15.781Z,95015.00
2023-05-19T05:37:15.792Z,95013.00
2023-05-19T05:38:15.854Z,95011.00
2023-05-19T05:39:15.880Z,95013.00
2023-05-19T05:40:15.924Z,95013.00
2023-05-19T05:41:15.919Z,95013.00
2023-05-19T05:42:15.925Z,95017.00
2023-05-19T05:43:15.987Z,95015.00
2023-05-19T05:44:16.006Z,95019.00
2023-05-19T05:45:16.020Z,95019.00
2023-05-19T05:46:16.142Z,95017.00
2023-05-19T05:47:16.135Z,95017.00
2023-05-19T05:48:16.236Z,95015.00
2023-05-19T05:49:16.182Z,95017.00
2023-05-19T05:50:16.176Z,95013.00
2023-05-19T05:51:16.189Z,95011.00
2023-05-19T05:52:16.239Z,95015.00
2023-05-19T05:53:16.283Z,95013.00
2023-05-19T05:54:16.342Z,95013.00
2023-05-19T05:55:16.363Z,95011.00
2023-05-19T05:56:16.384Z,95013.00
2023-05-19T05:57:16.387Z,95013.00
2023-05-19T05:58:16.369Z,95015.00
2023-05-19T05:59:16.425Z,95015.00
2023-05-19T06:00:16.475Z,95015.00
2023-05-19T06:01:16.493Z,95011.00
2023-05-19T06:02:16.581Z,95013.00
2023-05-19T06:03:16.599Z,95011.00
2023-05-19T06:04:16.643Z,95009.00
2023-05-19T06:05:16.685Z,95013.00
2023-05-19T06:06:16.636Z,95011.00
2023-05-19T06:07:16.687Z,95013.00
2023-05-19T06:08:16.716Z,95011.00
2023-05-19T06:09:16.763Z,95009.00
2023-05-19T06:10:16.793Z,95009.00
2023-05-19T06:11:16.858Z,95009.00
2023-05-19T06:12:16.874Z,95011.00
2023-05-19T06:13:16.869Z,95009.00
2023-05-19T06:14:16.942Z,95009.00
2023-05-19T06:15:16.962Z,95015.00
2023-05-19T06:16:17.069Z,95013.00
2023-05-19T06:17:16.997Z,95013.00
2023-05-19T06:18:17.038Z,95011.00
2023-05-19T06:19:17.124Z,95015.00
2023-05-19T06:20:17.112Z,95015.00
2023-05-19T06:21:17.205Z,95013.00
2023-05-19T06:22:17.166Z,95015.00
2023-05-19T06:23:17.182Z,95015.00
2023-05-19T06:24:17.180Z,95013.00
2023-05-19T06:25:17.190Z,95013.00
2023-05-19T06:26:17.218Z,95005.00
2023-05-19T06:27:17.245Z,95009.00
2023-05-19T06:28:17.300Z,95003.00
2023-05-19T06:29:17.367Z,95005.00
2023-05-19T06:30:17.402Z,95007.00
2023-05-19T06:31:17.466Z,95003.00
2023-05-19T06:32:17.459Z,95005.00
2023-05-19T06:33:17.470Z,95005.00
2023-05-19T06:34:17.530Z,95007.00
2023-05-19T06:35:17.563Z,95005.00
2023-05-19T06:36:17.621Z,95003.00
2023-05-19T06:37:17.643Z,95003.00
2023-05-19T06:38:17.673Z,95003.00
2023-05-19T06:39:17.680Z,95001.00
2023-05-19T06:40:17.710Z,95003.00
2023-05-19T06:41:17.752Z,94999.00
2023-05-19T06:42:17.770Z,95003.00
2023-05-19T06:43:17.838Z,95001.00
2023-05-19T06:44:19.803Z,94999.00
2023-05-19T06:45:17.833Z,94999.00
2023-05-19T06:46:17.915Z,95003.00
2023-05-19T06:47:17.857Z,95001.00
2023-05-19T06:48:17.883Z,94997.00
2023-05-19T06:49:17.784Z,94997.00
2023-05-19T06:50:17.799Z,94997.00
2023-05-19T06:51:17.779Z,94997.00
2023-05-19T06:52:17.869Z,94997.00
2023-05-19T06:53:17.773Z,94997.00
2023-05-19T06:54:17.775Z,94995.00
2023-05-19T06:55:17.746Z,94995.00
2023-05-19T06:56:17.742Z,94993.00
2023-05-19T06:57:17.731Z,94993.00
2023-05-19T06:58:17.717Z,94997.00
2023-05-19T06:59:17.720Z,94997.00
2023-05-19T07:00:19.817Z,94999.00
2023-05-19T07:01:17.750Z,94997.00
2023-05-19T07:02:17.735Z,94995.00
2023-05-19T07:03:17.761Z,94995.00
2023-05-19T07:04:17.686Z,94991.00
2023-05-19T07:05:17.703Z,94997.00
2023-05-19T07:06:17.670Z,94995.00
2023-05-19T07:07:17.684Z,94997.00
2023-05-19T07:08:17.659Z,94995.00
2023-05-19T07:09:17.655Z,94995.00
2023-05-19T07:10:17.632Z,94989.00
2023-05-19T07:11:17.650Z,94991.00
2023-05-19T07:12:17.634Z,94993.00
2023-05-19T07:13:17.636Z,94993.00
2023-05-19T07:14:17.635Z,94995.00
2023-05-19T07:15:17.605Z,94991.00
2023-05-19T07:16:17.607Z,94991.00
2023-05-19T07:17:17.659Z,94989.00
2023-05-19T07:18:17.605Z,94986.00
2023-05-19T07:19:17.629Z,94986.00
2023-05-19T07:20:17.580Z,94986.00
2023-05-19T07:21:17.576Z,94982.00
2023-05-19T07:22:17.567Z,94980.00
2023-05-19T07:23:17.618Z,94982.00
2023-05-19T07:24:17.553Z,94980.00
2023-05-19T07:25:17.548Z,94982.00
2023-05-19T07:26:17.548Z,94978.00
2023-05-19T07:27:17.528Z,94974.00
2023-05-19T07:28:17.539Z,94974.00
2023-05-19T07:29:17.556Z,94976.00
2023-05-19T07:30:17.520Z,94974.00
2023-05-19T07:31:17.512Z,94972.00
2023-05-19T07:32:17.556Z,94970.00
2023-05-19T07:33:17.495Z,94970.00
2023-05-19T07:34:17.472Z,94970.00
2023-05-19T07:35:17.494Z,94970.00
2023-05-19T07:36:17.465Z,94970.00
2023-05-19T07:37:17.467Z,94972.00
2023-05-19T07:38:17.464Z,94972.00
2023-05-19T07:39:17.595Z,94970.00
2023-05-19T07:40:17.541Z,94968.00
2023-05-19T07:41:17.452Z,94966.00
2023-05-19T07:42:17.429Z,94968.00
2023-05-19T07:43:17.442Z,94964.00
2023-05-19T07:44:17.402Z,94962.00
2023-05-19T07:45:17.436Z,94962.00
2023-05-19T07:46:17.475Z,94962.00
2023-05-19T07:47:17.468Z,94960.00
2023-05-19T07:48:17.599Z,94960.00
2023-05-19T07:49:17.551Z,94960.00
2023-05-19T07:50:17.609Z,94962.00
2023-05-19T07:51:17.655Z,94956.00
2023-05-19T07:52:17.691Z,94956.00
2023-05-19T07:53:17.727Z,94958.00
2023-05-19T07:54:17.796Z,94956.00
2023-05-19T07:55:17.819Z,94954.00
2023-05-19T07:56:17.864Z,94952.00
2023-05-19T07:57:17.912Z,94956.00
2023-05-19T07:58:17.943Z,94952.00
2023-05-19T07:59:18.000Z,94952.00
2023-05-19T08:00:18.050Z,94954.00
2023-05-19T08:01:18.079Z,94954.00
2023-05-19T08:02:18.188Z,94950.00
2023-05-19T08:03:18.382Z,94954.00
2023-05-19T08:04:18.354Z,94954.00
2023-05-19T08:05:18.219Z,94948.00
2023-05-19T08:06:18.226Z,94950.00
2023-05-19T08:07:18.252Z,94948.00
2023-05-19T08:08:18.267Z,94948.00
2023-05-19T08:09:18.291Z,94946.00
2023-05-19T08:10:18.362Z,94942.00
2023-05-19T08:11:18.332Z,94942.00
2023-05-19T08:12:18.568Z,94942.00
2023-05-19T08:13:18.511Z,94942.00
2023-05-19T08:14:18.478Z,94942.00
2023-05-19T08:15:18.542Z,94942.00
2023-05-19T08:16:18.655Z,94940.00
2023-05-19T08:17:18.647Z,94937.00
2023-05-19T08:18:18.663Z,94940.00
2023-05-19T08:19:18.801Z,94939.00
2023-05-19T08:20:18.750Z,94935.00
2023-05-19T08:21:18.793Z,94935.00
2023-05-19T08:22:18.825Z,94937.00
2023-05-19T08:23:18.805Z,94935.00
2023-05-19T08:24:18.825Z,94937.00
2023-05-19T08:25:18.858Z,94933.00
2023-05-19T08:26:18.870Z,94935.00
2023-05-19T08:27:18.945Z,94933.00
2023-05-19T08:28:19.079Z,94931.00
2023-05-19T08:29:19.018Z,94929.00
2023-05-19T08:30:19.087Z,94927.00
2023-05-19T08:31:19.212Z,94929.00
2023-05-19T08:32:19.169Z,94927.00
2023-05-19T08:33:19.180Z,94923.00
2023-05-19T08:34:19.206Z,94925.00
2023-05-19T08:35:19.225Z,94925.00
2023-05-19T08:36:19.264Z,94923.00
2023-05-19T08:37:19.294Z,94923.00
2023-05-19T08:38:19.301Z,94921.00
2023-05-19T08:39:19.355Z,94923.00
2023-05-19T08:40:19.374Z,94925.00
2023-05-19T08:41:19.456Z,94927.00
2023-05-19T08:42:19.429Z,94921.00
2023-05-19T08:43:19.440Z,94923.00
2023-05-19T08:44:19.566Z,94921.00
2023-05-19T08:45:19.516Z,94921.00
2023-05-19T08:46:19.596Z,94923.00
2023-05-19T08:47:19.965Z,94923.00
2023-05-19T08:48:19.620Z,94917.00
2023-05-19T08:49:19.656Z,94917.00
2023-05-19T08:50:19.720Z,94917.00
2023-05-19T08:51:19.727Z,94919.00
2023-05-19T08:52:19.764Z,94919.00
2023-05-19T08:53:31.738Z,94917.00
2023-05-19T08:54:20.829Z,94909.00
2023-05-19T08:55:19.780Z,94909.00
2023-05-19T08:56:19.774Z,94903.00
2023-05-19T08:57:19.767Z,94899.00
2023-05-19T08:58:19.756Z,94899.00
2023-05-19T08:59:19.750Z,94899.00
2023-05-19T09:00:19.741Z,94893.00
2023-05-19T09:01:19.801Z,94893.00
2023-05-19T09:02:19.732Z,94893.00
2023-05-19T09:03:24.035Z,94893.00
2023-05-19T09:04:19.783Z,94886.00
2023-05-19T09:05:19.773Z,94893.00
2023-05-19T09:06:19.697Z,94886.00
2023-05-19T09:07:19.721Z,94884.00
2023-05-19T09:08:19.696Z,94893.00
2023-05-19T09:09:19.705Z,94895.00
2023-05-19T09:10:19.670Z,94886.00
2023-05-19T09:11:19.683Z,94880.00
2023-05-19T09:12:19.676Z,94878.00
2023-05-19T09:13:19.684Z,94878.00
2023-05-19T09:14:19.647Z,94878.00
2023-05-19T09:15:19.643Z,94878.00
2023-05-19T09:16:19.717Z,94876.00
2023-05-19T09:17:19.710Z,94874.00
2023-05-19T09:18:19.616Z,94870.00
2023-05-19T09:19:19.694Z,94872.00
2023-05-19T09:20:19.660Z,94870.00
2023-05-19T09:21:19.624Z,94868.00
2023-05-19T09:22:19.627Z,94868.00
2023-05-19T09:23:19.600Z,94868.00
2023-05-19T09:24:19.586Z,94870.00
2023-05-19T09:25:19.591Z,94866.00
2023-05-19T09:26:19.578Z,94862.00
2023-05-19T09:27:19.568Z,94862.00
2023-05-19T09:28:19.561Z,94862.00
2023-05-19T09:29:19.570Z,94858.00
2023-05-19T09:30:19.705Z,94856.00
2023-05-19T09:31:19.664Z,94860.00
2023-05-19T09:32:19.780Z,94856.00
2023-05-19T09:33:19.785Z,94852.00
2023-05-19T09:34:19.768Z,94854.00
2023-05-19T09:35:19.819Z,94852.00
2023-05-19T09:36:19.845Z,94848.00
2023-05-19T09:37:19.861Z,94848.00
2023-05-19T09:38:19.882Z,94846.00
2023-05-19T09:39:19.942Z,94846.00
2023-05-19T09:40:19.950Z,94848.00
2023-05-19T09:41:20.967Z,94848.00
2023-05-19T09:42:20.059Z,94842.00
2023-05-19T09:43:20.091Z,94842.00
2023-05-19T09:44:20.110Z,94840.00
2023-05-19T09:45:20.137Z,94840.00
2023-05-19T09:46:20.179Z,94839.00
2023-05-19T09:47:20.166Z,94839.00
2023-05-19T09:48:20.268Z,94839.00
2023-05-19T09:49:20.258Z,94837.00
2023-05-19T09:50:20.258Z,94833.00
2023-05-19T09:51:20.278Z,94831.00
2023-05-19T09:52:20.314Z,94827.00
2023-05-19T09:53:20.360Z,94827.00
2023-05-19T09:54:20.401Z,94827.00
2023-05-19T09:55:20.414Z,94825.00
2023-05-19T09:56:20.465Z,94821.00
2023-05-19T09:57:20.443Z,94823.00
2023-05-19T09:58:20.466Z,94825.00
2023-05-19T09:59:20.475Z,94825.00
2023-05-19T10:00:20.491Z,94817.00
2023-05-19T10:01:20.587Z,94813.00
2023-05-19T10:02:20.597Z,94809.00
2023-05-19T10:03:20.649Z,94811.00
2023-05-19T10:04:20.675Z,94807.00
2023-05-19T10:05:20.832Z,94805.00
2023-05-19T10:06:20.713Z,94801.00
2023-05-19T10:07:20.733Z,94803.00
2023-05-19T10:08:20.750Z,94799.00
2023-05-19T10:09:20.778Z,94801.00
2023-05-19T10:10:20.796Z,94797.00
2023-05-19T10:11:20.851Z,94797.00
2023-05-19T10:12:20.879Z,94793.00
2023-05-19T10:13:20.921Z,94793.00
2023-05-19T10:14:20.961Z,94792.00
2023-05-19T10:15:23.163Z,94792.00
2023-05-19T10:16:21.111Z,94784.00
2023-05-19T10:17:21.066Z,94786.00
2023-05-19T10:18:21.096Z,94784.00
2023-05-19T10:19:21.162Z,94786.00
2023-05-19T10:20:21.182Z,94788.00
2023-05-19T10:21:21.199Z,94786.00
2023-05-19T10:22:21.242Z,94786.00
2023-05-19T10:23:21.257Z,94786.00
2023-05-19T10:24:21.336Z,94788.00
2023-05-19T10:25:21.322Z,94784.00
2023-05-19T10:26:21.341Z,94786.00
2023-05-19T10:27:21.405Z,94782.00
2023-05-19T10:28:21.452Z,94778.00
2023-05-19T10:29:21.473Z,94778.00
2023-05-19T10:30:21.520Z,94774.00
2023-05-19T10:31:21.558Z,94768.00
2023-05-19T10:32:21.798Z,94770.00
2023-05-19T10:33:21.681Z,94768.00
2023-05-19T10:34:21.643Z,94768.00
2023-05-19T10:35:21.673Z,94764.00
2023-05-19T10:36:21.714Z,94762.00
2023-05-19T10:37:21.745Z,94760.00
2023-05-19T10:38:21.756Z,94758.00
2023-05-19T10:39:21.787Z,94758.00
2023-05-19T10:40:21.829Z,94756.00
2023-05-19T10:41:21.845Z,94754.00
2023-05-19T10:42:21.856Z,94754.00
2023-05-19T10:43:21.879Z,94752.00
2023-05-19T10:44:21.893Z,94752.00
2023-05-19T10:45:21.900Z,94752.00
2023-05-19T10:46:21.922Z,94750.00
2023-05-19T10:47:22.003Z,94752.00
2023-05-19T10:48:21.902Z,94754.00
2023-05-19T10:49:21.918Z,94750.00
2023-05-19T10:50:21.900Z,94748.00
2023-05-19T10:51:21.913Z,94752.00
2023-05-19T10:52:21.985Z,94752.00
2023-05-19T10:53:21.940Z,94748.00
2023-05-19T10:54:21.955Z,94750.00
2023-05-19T10:55:21.966Z,94748.00
2023-05-19T10:56:22.005Z,94746.00
2023-05-19T10:57:22.021Z,94742.00
2023-05-19T10:58:22.040Z,94742.00
2023-05-19T10:59:22.068Z,94742.00
2023-05-19T11:00:22.099Z,94744.00
2023-05-19T11:01:22.123Z,94738.00
2023-05-19T11:02:22.638Z,94737.00
2023-05-19T11:03:22.125Z,94738.00
2023-05-19T11:04:22.232Z,94738.00
2023-05-19T11:05:22.209Z,94737.00
2023-05-19T11:06:22.253Z,94735.00
2023-05-19T11:07:22.336Z,94733.00
2023-05-19T11:08:22.340Z,94737.00
2023-05-19T11:09:31.094Z,94735.00
2023-05-19T11:10:23.356Z,94735.00
2023-05-19T11:11:23.433Z,94733.00
2023-05-19T11:12:24.316Z,94735.00
2023-05-19T11:13:23.043Z,94733.00
2023-05-19T11:14:22.446Z,94729.00
2023-05-19T11:15:22.456Z,94729.00
2023-05-19T11:16:22.545Z,94729.00
2023-05-19T11:17:22.563Z,94729.00
2023-05-19T11:18:22.563Z,94723.00
2023-05-19T11:19:22.795Z,94725.00
2023-05-19T11:20:22.663Z,94725.00
2023-05-19T11:21:22.722Z,94719.00
2023-05-19T11:22:22.737Z,94717.00
2023-05-19T11:23:22.785Z,94717.00
2023-05-19T11:24:22.747Z,94711.00
2023-05-19T11:25:22.746Z,94711.00
2023-05-19T11:26:22.808Z,94707.00
2023-05-19T11:27:22.856Z,94705.00
2023-05-19T11:28:22.907Z,94707.00
2023-05-19T11:29:22.932Z,94707.00
2023-05-19T11:30:22.989Z,94705.00
2023-05-19T11:31:23.086Z,94703.00
2023-05-19T11:32:23.552Z,94703.00
2023-05-19T11:33:23.071Z,94705.00
2023-05-19T11:34:23.112Z,94705.00
2023-05-19T11:35:23.103Z,94703.00
2023-05-19T11:36:23.129Z,94699.00
2023-05-19T11:37:23.140Z,94699.00
2023-05-19T11:38:23.140Z,94697.00
2023-05-19T11:39:23.198Z,94695.00
2023-05-19T11:40:23.236Z,94691.00
2023-05-19T11:41:23.215Z,94691.00
2023-05-19T11:42:23.279Z,94693.00
2023-05-19T11:43:23.359Z,94688.00
2023-05-19T11:44:23.360Z,94682.00